Terminal Aerodrome Forecast
Issued by NWS

Home | Current Version | Previous Version | Text Only | Print | Product List | Glossary On
Versions: 1 2 3 4 5 6 7 8 9 10 11 12 13 14 15 16 17 18 19
000
FTUS45 KABQ 311127
TAFLVS
TAF
KLVS 311127Z 3112/0112 18006KT P6SM VCSH BKN035
      TEMPO 3112/3116 BKN015
     FM311600 20008KT P6SM SCT040 BKN120
     FM312100 19012KT P6SM VCTS BKN050CB
     FM010200 17010KT P6SM VCSH BKN080=

USA.gov is the U.S. government's official web portal to all federal, state and local government web resources and services.